Isabella — 9HSL7 — position and weather

sailwx.info

Track history (hours):
 
Tides and Currents Weather Stations Pressure Air Temp Water Temp Dewpoint Dewpoint Depression Visibility Wind Speed Wind Dir Waves Ship Positions

Isabella

Last reported at 2016-Aug-28 11:33 UTC. Time now 2016-Aug-28 12:02 UTC.
Position N 39°03' W 010°11'.

Length 244 m; draft 15 m.

Type: Tanker. MMSI: 215545000.

Date/timePositionNaut miles runAvg speedWind from/ knotsBaromVisibWave heightAir tempDewpointWater temp
2016-Aug-28 11:33N 39°03' W 010°11'1412.7
2016-Aug-28 10:28N 39°17' W 010°11'10312.4
2016-Aug-28 02:08N 41°00' W 010°11'2112.4
2016-Aug-28 00:26N 41°21' W 010°11'1112.7
2016-Aug-27 23:33N 41°32' W 010°11'6212.4
2016-Aug-27 18:33N 42°35' W 010°11'1412.5
2016-Aug-27 17:23N 42°49' W 010°11'37912.3
2016-Aug-26 10:33N 48°28' W 006°09'1212.3
2016-Aug-26 09:33N 48°39' W 005°60'1211.6
2016-Aug-26 08:33N 48°49' W 005°51'1111.1
2016-Aug-26 07:33N 48°57' W 005°39'1111.5
2016-Aug-26 06:33N 49°03' W 005°25'21 9.9
2016-Aug-26 04:25N 49°13' W 004°56'1113.1
2016-Aug-26 03:33N 49°18' W 004°41'1313.3
2016-Aug-26 02:33N 49°25' W 004°24'1312.8
2016-Aug-26 01:33N 49°32' W 004°06'1212.1
2016-Aug-26 00:33N 49°38' W 003°50'1211.8
2016-Aug-25 23:33N 49°44' W 003°35'1211.8
2016-Aug-25 22:33N 49°50' W 003°19'1212.4
2016-Aug-25 21:33N 49°56' W 003°02'1413.4
2016-Aug-25 20:32N 50°01' W 002°42'1414.7
2016-Aug-25 19:33N 50°04' W 002°21'1515.5
2016-Aug-25 18:33N 50°09' W 001°58'1515.2
2016-Aug-25 17:32N 50°13' W 001°34'1414.0
2016-Aug-25 16:33N 50°17' W 001°14'1312.7
2016-Aug-25 15:33N 50°20' W 000°55'1111.3
2016-Aug-25 14:33N 50°23' W 000°38'1110.8
2016-Aug-25 13:34N 50°26' W 000°21'1010.3
2016-Aug-25 12:34N 50°30' W 000°06'1211.8
2016-Aug-25 11:33N 50°33' E 000°12'1413.2
2016-Aug-25 10:31N 50°36' E 000°33'2813.8
2016-Aug-25 08:32N 50°53' E 001°08'1212.8
2016-Aug-25 07:33N 51°01' E 001°22'1111.4
2016-Aug-25 06:33N 51°08' E 001°36'2110.4
2016-Aug-25 04:33N 51°26' E 001°54'1312.6
2016-Aug-25 03:33N 51°35' E 002°08'1413.5
2016-Aug-25 02:34N 51°45' E 002°22'1414.1
2016-Aug-25 01:33N 51°57' E 002°34'1514.6
2016-Aug-25 00:33N 52°12' E 002°39'4113.2
2016-Aug-24 21:26N 52°48' E 003°09'1111.8
2016-Aug-24 20:31N 52°58' E 003°17'2311.5
2016-Aug-24 18:28N 53°21' E 003°28'3712.2
2016-Aug-24 15:25N 53°53' E 004°01'1113.0
2016-Aug-24 14:33N 53°59' E 004°17'1212.4
2016-Aug-24 13:33N 54°09' E 004°30'1212.4
2016-Aug-24 12:33N 54°20' E 004°40'1212.2
2016-Aug-24 11:33N 54°31' E 004°51'1212.2
2016-Aug-24 10:33N 54°41' E 005°00'1212.3
2016-Aug-24 09:33N 54°52' E 005°11'1212.4
2016-Aug-24 08:33N 55°03' E 005°20'1312.6
2016-Aug-24 07:32N 55°14' E 005°32'1212.6
2016-Aug-24 06:33N 55°25' E 005°42'2812.2
2016-Aug-24 04:18N 55°53' E 005°40'1012.4
2016-Aug-24 03:28N 56°03' E 005°38'3912.4
2016-Aug-24 00:19N 56°42' E 005°35'9912.6
2016-Aug-23 16:28N 58°15' E 004°33'  
Track history (hours):
 
Tides and Currents Weather Stations Pressure Air Temp Water Temp Dewpoint Dewpoint Depression Visibility Wind Speed Wind Dir Waves Ship Positions

Isabella

Last reported at 2016-Aug-28 11:33 UTC. Time now 2016-Aug-28 12:02 UTC.
Position N 39°03' W 010°11'.

Length 244 m; draft 15 m.

Type: Tanker. MMSI: 215545000.

Date/timePositionNaut miles runAvg speedWind from/ knotsBaromVisibWave heightAir tempDewpointWater temp
2016-Aug-28 11:33N 39°03' W 010°11'1412.7
2016-Aug-28 10:28N 39°17' W 010°11'10312.4
2016-Aug-28 02:08N 41°00' W 010°11'2112.4
2016-Aug-28 00:26N 41°21' W 010°11'1112.7
2016-Aug-27 23:33N 41°32' W 010°11'6212.4
2016-Aug-27 18:33N 42°35' W 010°11'1412.5
2016-Aug-27 17:23N 42°49' W 010°11'37912.3
2016-Aug-26 10:33N 48°28' W 006°09'1212.3
2016-Aug-26 09:33N 48°39' W 005°60'1211.6
2016-Aug-26 08:33N 48°49' W 005°51'1111.1
2016-Aug-26 07:33N 48°57' W 005°39'1111.5
2016-Aug-26 06:33N 49°03' W 005°25'21 9.9
2016-Aug-26 04:25N 49°13' W 004°56'1113.1
2016-Aug-26 03:33N 49°18' W 004°41'1313.3
2016-Aug-26 02:33N 49°25' W 004°24'1312.8
2016-Aug-26 01:33N 49°32' W 004°06'1212.1
2016-Aug-26 00:33N 49°38' W 003°50'1211.8
2016-Aug-25 23:33N 49°44' W 003°35'1211.8
2016-Aug-25 22:33N 49°50' W 003°19'1212.4
2016-Aug-25 21:33N 49°56' W 003°02'1413.4
2016-Aug-25 20:32N 50°01' W 002°42'1414.7
2016-Aug-25 19:33N 50°04' W 002°21'1515.5
2016-Aug-25 18:33N 50°09' W 001°58'1515.2
2016-Aug-25 17:32N 50°13' W 001°34'1414.0
2016-Aug-25 16:33N 50°17' W 001°14'1312.7
2016-Aug-25 15:33N 50°20' W 000°55'1111.3
2016-Aug-25 14:33N 50°23' W 000°38'1110.8
2016-Aug-25 13:34N 50°26' W 000°21'1010.3
2016-Aug-25 12:34N 50°30' W 000°06'1211.8
2016-Aug-25 11:33N 50°33' E 000°12'1413.2
2016-Aug-25 10:31N 50°36' E 000°33'2813.8
2016-Aug-25 08:32N 50°53' E 001°08'1212.8
2016-Aug-25 07:33N 51°01' E 001°22'1111.4
2016-Aug-25 06:33N 51°08' E 001°36'2110.4
2016-Aug-25 04:33N 51°26' E 001°54'1312.6
2016-Aug-25 03:33N 51°35' E 002°08'1413.5
2016-Aug-25 02:34N 51°45' E 002°22'1414.1
2016-Aug-25 01:33N 51°57' E 002°34'1514.6
2016-Aug-25 00:33N 52°12' E 002°39'4113.2
2016-Aug-24 21:26N 52°48' E 003°09'1111.8
2016-Aug-24 20:31N 52°58' E 003°17'2311.5
2016-Aug-24 18:28N 53°21' E 003°28'3712.2
2016-Aug-24 15:25N 53°53' E 004°01'1113.0
2016-Aug-24 14:33N 53°59' E 004°17'1212.4
2016-Aug-24 13:33N 54°09' E 004°30'1212.4
2016-Aug-24 12:33N 54°20' E 004°40'1212.2
2016-Aug-24 11:33N 54°31' E 004°51'1212.2
2016-Aug-24 10:33N 54°41' E 005°00'1212.3
2016-Aug-24 09:33N 54°52' E 005°11'1212.4
2016-Aug-24 08:33N 55°03' E 005°20'1312.6
2016-Aug-24 07:32N 55°14' E 005°32'1212.6
2016-Aug-24 06:33N 55°25' E 005°42'2812.2
2016-Aug-24 04:18N 55°53' E 005°40'1012.4
2016-Aug-24 03:28N 56°03' E 005°38'3912.4
2016-Aug-24 00:19N 56°42' E 005°35'9912.6
2016-Aug-23 16:28N 58°15' E 004°33'  

Dump ship's entire track history